sensor_id;sensor_type;location;lat;lon;timestamp;pressure;altitude;pressure_sealevel;temperature;humidity
20394;BME280;10356;50.544;9.642;2022-12-07T00:01:45;98286.06;;;1.67;100.00
20394;BME280;10356;50.544;9.642;2022-12-07T00:04:13;98270.84;;;1.63;100.00
20394;BME280;10356;50.544;9.642;2022-12-07T00:06:41;98270.72;;;1.66;100.00
20394;BME280;10356;50.544;9.642;2022-12-07T00:09:10;98277.28;;;1.73;100.00
20394;BME280;10356;50.544;9.642;2022-12-07T00:11:37;98272.00;;;1.76;100.00
20394;BME280;10356;50.544;9.642;2022-12-07T00:14:07;98276.19;;;1.79;100.00
20394;BME280;10356;50.544;9.642;2022-12-07T00:16:34;98273.53;;;1.80;100.00
20394;BME280;10356;50.544;9.642;2022-12-07T00:19:03;98280.34;;;1.81;100.00
20394;BME280;10356;50.544;9.642;2022-12-07T00:21:32;98271.72;;;1.82;100.00
20394;BME280;10356;50.544;9.642;2022-12-07T00:23:59;98269.81;;;1.87;100.00
20394;BME280;10356;50.544;9.642;2022-12-07T00:26:27;98261.34;;;1.85;100.00
20394;BME280;10356;50.544;9.642;2022-12-07T00:28:56;98263.06;;;1.85;100.00
20394;BME280;10356;50.544;9.642;2022-12-07T00:31:27;98257.09;;;1.84;100.00
20394;BME280;10356;50.544;9.642;2022-12-07T00:33:54;98253.66;;;1.85;100.00
20394;BME280;10356;50.544;9.642;2022-12-07T00:36:22;98253.56;;;1.87;100.00
20394;BME280;10356;50.544;9.642;2022-12-07T00:38:49;98252.69;;;1.88;100.00
20394;BME280;10356;50.544;9.642;2022-12-07T00:41:17;98242.59;;;1.83;100.00
20394;BME280;10356;50.544;9.642;2022-12-07T00:43:46;98244.13;;;1.87;100.00
20394;BME280;10356;50.544;9.642;2022-12-07T00:46:13;98241.13;;;1.98;100.00
20394;BME280;10356;50.544;9.642;2022-12-07T00:48:41;98237.09;;;2.11;100.00
20394;BME280;10356;50.544;9.642;2022-12-07T00:51:09;98232.28;;;2.03;100.00
20394;BME280;10356;50.544;9.642;2022-12-07T00:53:37;98233.19;;;2.02;100.00
20394;BME280;10356;50.544;9.642;2022-12-07T00:56:05;98233.34;;;1.99;100.00
20394;BME280;10356;50.544;9.642;2022-12-07T00:58:32;98222.13;;;2.00;100.00
20394;BME280;10356;50.544;9.642;2022-12-07T01:00:59;98227.28;;;2.00;100.00
20394;BME280;10356;50.544;9.642;2022-12-07T01:03:26;98225.63;;;1.99;100.00
20394;BME280;10356;50.544;9.642;2022-12-07T01:05:55;98226.25;;;2.04;100.00
20394;BME280;10356;50.544;9.642;2022-12-07T01:08:22;98221.88;;;2.06;100.00
20394;BME280;10356;50.544;9.642;2022-12-07T01:10:56;98215.84;;;2.07;100.00
20394;BME280;10356;50.544;9.642;2022-12-07T01:13:23;98209.03;;;2.06;100.00
20394;BME280;10356;50.544;9.642;2022-12-07T01:15:49;98213.19;;;2.09;100.00
20394;BME280;10356;50.544;9.642;2022-12-07T01:18:16;98216.59;;;2.09;100.00
20394;BME280;10356;50.544;9.642;2022-12-07T01:20:42;98225.19;;;2.08;100.00
20394;BME280;10356;50.544;9.642;2022-12-07T01:23:10;98216.69;;;2.08;100.00
20394;BME280;10356;50.544;9.642;2022-12-07T01:25:36;98214.03;;;2.09;100.00
20394;BME280;10356;50.544;9.642;2022-12-07T01:28:03;98218.41;;;2.07;100.00
20394;BME280;10356;50.544;9.642;2022-12-07T01:30:30;98213.97;;;2.11;100.00
20394;BME280;10356;50.544;9.642;2022-12-07T01:32:56;98217.50;;;2.08;100.00
20394;BME280;10356;50.544;9.642;2022-12-07T01:35:23;98217.22;;;2.14;100.00
20394;BME280;10356;50.544;9.642;2022-12-07T01:37:49;98225.69;;;2.16;100.00
20394;BME280;10356;50.544;9.642;2022-12-07T01:40:17;98225.56;;;2.19;100.00
20394;BME280;10356;50.544;9.642;2022-12-07T01:42:43;98218.63;;;2.21;100.00
20394;BME280;10356;50.544;9.642;2022-12-07T01:45:37;98226.00;;;2.29;100.00
20394;BME280;10356;50.544;9.642;2022-12-07T01:48:05;98215.88;;;2.26;100.00
20394;BME280;10356;50.544;9.642;2022-12-07T01:50:33;98214.09;;;2.26;100.00
20394;BME280;10356;50.544;9.642;2022-12-07T01:53:04;98209.03;;;2.25;100.00
20394;BME280;10356;50.544;9.642;2022-12-07T01:55:35;98218.22;;;2.30;100.00
20394;BME280;10356;50.544;9.642;2022-12-07T01:58:03;98212.03;;;2.34;100.00
20394;BME280;10356;50.544;9.642;2022-12-07T02:00:30;98213.84;;;2.32;100.00
20394;BME280;10356;50.544;9.642;2022-12-07T02:03:01;98204.75;;;2.25;100.00
20394;BME280;10356;50.544;9.642;2022-12-07T02:05:31;98200.38;;;2.27;100.00
20394;BME280;10356;50.544;9.642;2022-12-07T02:07:59;98207.25;;;2.27;100.00
20394;BME280;10356;50.544;9.642;2022-12-07T02:10:27;98205.44;;;2.29;100.00
20394;BME280;10356;50.544;9.642;2022-12-07T02:12:57;98200.16;;;2.32;100.00
20394;BME280;10356;50.544;9.642;2022-12-07T02:15:32;98200.84;;;2.35;100.00
20394;BME280;10356;50.544;9.642;2022-12-07T02:18:07;98192.22;;;2.55;100.00
20394;BME280;10356;50.544;9.642;2022-12-07T02:20:39;98192.50;;;2.68;100.00
20394;BME280;10356;50.544;9.642;2022-12-07T02:23:29;98183.59;;;2.75;100.00
20394;BME280;10356;50.544;9.642;2022-12-07T02:26:38;98187.41;;;2.85;100.00
20394;BME280;10356;50.544;9.642;2022-12-07T02:29:14;98187.53;;;2.82;100.00
20394;BME280;10356;50.544;9.642;2022-12-07T02:31:46;98186.56;;;2.84;100.00
20394;BME280;10356;50.544;9.642;2022-12-07T02:34:21;98183.81;;;2.87;100.00
20394;BME280;10356;50.544;9.642;2022-12-07T02:36:55;98182.16;;;2.86;100.00
20394;BME280;10356;50.544;9.642;2022-12-07T02:39:29;98181.34;;;2.86;100.00
20394;BME280;10356;50.544;9.642;2022-12-07T02:42:03;98190.56;;;2.90;100.00
20394;BME280;10356;50.544;9.642;2022-12-07T02:44:35;98184.81;;;2.85;100.00
20394;BME280;10356;50.544;9.642;2022-12-07T02:47:05;98188.06;;;2.88;100.00
20394;BME280;10356;50.544;9.642;2022-12-07T02:49:33;98181.19;;;2.89;100.00
20394;BME280;10356;50.544;9.642;2022-12-07T02:52:00;98183.47;;;2.95;100.00
20394;BME280;10356;50.544;9.642;2022-12-07T02:54:26;98179.59;;;2.86;100.00
20394;BME280;10356;50.544;9.642;2022-12-07T02:56:58;98180.16;;;2.93;100.00
20394;BME280;10356;50.544;9.642;2022-12-07T02:59:37;98176.06;;;2.89;100.00
20394;BME280;10356;50.544;9.642;2022-12-07T03:02:18;98177.50;;;2.94;100.00
20394;BME280;10356;50.544;9.642;2022-12-07T03:04:55;98180.44;;;2.87;100.00
20394;BME280;10356;50.544;9.642;2022-12-07T03:07:32;98180.38;;;2.88;100.00
20394;BME280;10356;50.544;9.642;2022-12-07T03:10:10;98179.69;;;2.85;100.00
20394;BME280;10356;50.544;9.642;2022-12-07T03:12:44;98173.63;;;2.86;100.00
20394;BME280;10356;50.544;9.642;2022-12-07T03:15:16;98179.53;;;2.88;100.00
20394;BME280;10356;50.544;9.642;2022-12-07T03:17:46;98171.19;;;2.83;100.00
20394;BME280;10356;50.544;9.642;2022-12-07T03:20:16;98176.72;;;2.92;100.00
20394;BME280;10356;50.544;9.642;2022-12-07T03:22:45;98177.03;;;2.86;100.00
20394;BME280;10356;50.544;9.642;2022-12-07T03:25:15;98171.72;;;2.89;100.00
20394;BME280;10356;50.544;9.642;2022-12-07T03:27:45;98172.56;;;2.90;100.00
20394;BME280;10356;50.544;9.642;2022-12-07T03:30:18;98162.13;;;2.93;100.00
20394;BME280;10356;50.544;9.642;2022-12-07T03:32:48;98165.59;;;2.92;100.00
20394;BME280;10356;50.544;9.642;2022-12-07T03:35:20;98157.22;;;2.88;100.00
20394;BME280;10356;50.544;9.642;2022-12-07T03:37:51;98163.94;;;2.91;100.00
20394;BME280;10356;50.544;9.642;2022-12-07T03:40:24;98157.81;;;2.93;100.00
20394;BME280;10356;50.544;9.642;2022-12-07T03:42:52;98151.09;;;2.91;100.00
20394;BME280;10356;50.544;9.642;2022-12-07T03:45:24;98144.47;;;2.85;100.00
20394;BME280;10356;50.544;9.642;2022-12-07T03:48:02;98151.22;;;2.88;100.00
20394;BME280;10356;50.544;9.642;2022-12-07T03:50:36;98143.28;;;2.92;100.00
20394;BME280;10356;50.544;9.642;2022-12-07T03:53:09;98145.03;;;2.92;100.00
20394;BME280;10356;50.544;9.642;2022-12-07T03:55:40;98146.00;;;2.89;100.00
20394;BME280;10356;50.544;9.642;2022-12-07T03:58:11;98147.59;;;2.92;100.00
20394;BME280;10356;50.544;9.642;2022-12-07T04:00:40;98153.66;;;2.91;100.00
20394;BME280;10356;50.544;9.642;2022-12-07T04:03:07;98151.97;;;2.90;100.00
20394;BME280;10356;50.544;9.642;2022-12-07T04:05:34;98151.00;;;2.92;100.00
20394;BME280;10356;50.544;9.642;2022-12-07T04:08:01;98144.19;;;2.91;100.00
20394;BME280;10356;50.544;9.642;2022-12-07T04:10:27;98147.81;;;2.87;100.00
20394;BME280;10356;50.544;9.642;2022-12-07T04:12:54;98154.09;;;2.82;100.00
20394;BME280;10356;50.544;9.642;2022-12-07T04:15:21;98145.31;;;2.86;100.00
20394;BME280;10356;50.544;9.642;2022-12-07T04:17:48;98143.19;;;2.94;100.00
20394;BME280;10356;50.544;9.642;2022-12-07T04:20:15;98139.75;;;2.95;100.00
20394;BME280;10356;50.544;9.642;2022-12-07T04:22:42;98143.81;;;2.99;100.00
20394;BME280;10356;50.544;9.642;2022-12-07T04:25:08;98140.72;;;2.92;100.00
20394;BME280;10356;50.544;9.642;2022-12-07T04:27:35;98144.88;;;2.95;100.00
20394;BME280;10356;50.544;9.642;2022-12-07T04:30:02;98139.75;;;2.95;100.00
20394;BME280;10356;50.544;9.642;2022-12-07T04:32:29;98138.91;;;2.94;100.00
20394;BME280;10356;50.544;9.642;2022-12-07T04:34:57;98135.66;;;2.91;100.00
20394;BME280;10356;50.544;9.642;2022-12-07T04:37:23;98139.75;;;2.95;100.00
20394;BME280;10356;50.544;9.642;2022-12-07T04:39:50;98137.09;;;2.96;100.00
20394;BME280;10356;50.544;9.642;2022-12-07T04:42:16;98143.06;;;2.97;100.00
20394;BME280;10356;50.544;9.642;2022-12-07T04:44:43;98135.41;;;2.95;100.00
20394;BME280;10356;50.544;9.642;2022-12-07T04:47:09;98134.88;;;3.06;100.00
20394;BME280;10356;50.544;9.642;2022-12-07T04:49:36;98127.47;;;3.00;100.00
20394;BME280;10356;50.544;9.642;2022-12-07T04:52:04;98130.03;;;3.00;100.00
20394;BME280;10356;50.544;9.642;2022-12-07T04:54:31;98134.34;;;2.99;100.00
20394;BME280;10356;50.544;9.642;2022-12-07T04:56:57;98137.16;;;2.95;100.00
20394;BME280;10356;50.544;9.642;2022-12-07T04:59:24;98136.47;;;2.91;100.00
20394;BME280;10356;50.544;9.642;2022-12-07T05:01:50;98141.09;;;3.02;100.00
20394;BME280;10356;50.544;9.642;2022-12-07T05:04:17;98137.22;;;2.93;100.00
20394;BME280;10356;50.544;9.642;2022-12-07T05:06:43;98140.41;;;2.98;100.00
20394;BME280;10356;50.544;9.642;2022-12-07T05:09:11;98142.16;;;2.98;100.00
20394;BME280;10356;50.544;9.642;2022-12-07T05:11:38;98138.69;;;2.99;100.00
20394;BME280;10356;50.544;9.642;2022-12-07T05:14:07;98137.75;;;3.00;100.00
20394;BME280;10356;50.544;9.642;2022-12-07T05:16:34;98149.88;;;2.98;100.00
20394;BME280;10356;50.544;9.642;2022-12-07T05:19:00;98148.22;;;2.97;100.00
20394;BME280;10356;50.544;9.642;2022-12-07T05:21:27;98141.09;;;3.02;100.00
20394;BME280;10356;50.544;9.642;2022-12-07T05:23:53;98148.59;;;3.06;100.00
20394;BME280;10356;50.544;9.642;2022-12-07T05:26:21;98137.75;;;3.00;100.00
20394;BME280;10356;50.544;9.642;2022-12-07T05:28:50;98138.72;;;2.97;100.00
20394;BME280;10356;50.544;9.642;2022-12-07T05:31:16;98128.38;;;2.99;100.00
20394;BME280;10356;50.544;9.642;2022-12-07T05:33:43;98131.84;;;2.98;100.00
20394;BME280;10356;50.544;9.642;2022-12-07T05:36:09;98137.91;;;2.97;100.00
20394;BME280;10356;50.544;9.642;2022-12-07T05:38:36;98130.88;;;3.00;100.00
20394;BME280;10356;50.544;9.642;2022-12-07T05:41:03;98132.06;;;2.93;100.00
20394;BME280;10356;50.544;9.642;2022-12-07T05:43:31;98130.34;;;3.11;100.00
20394;BME280;10356;50.544;9.642;2022-12-07T05:45:57;98136.56;;;3.07;100.00
20394;BME280;10356;50.544;9.642;2022-12-07T05:48:24;98134.78;;;3.07;100.00
20394;BME280;10356;50.544;9.642;2022-12-07T05:50:52;98141.72;;;3.07;100.00
20394;BME280;10356;50.544;9.642;2022-12-07T05:53:19;98138.28;;;3.06;100.00
20394;BME280;10356;50.544;9.642;2022-12-07T05:55:46;98143.53;;;3.05;100.00
20394;BME280;10356;50.544;9.642;2022-12-07T05:58:12;98146.59;;;3.11;100.00
20394;BME280;10356;50.544;9.642;2022-12-07T06:00:58;98144.19;;;3.08;100.00
20394;BME280;10356;50.544;9.642;2022-12-07T06:03:24;98146.59;;;3.11;100.00
20394;BME280;10356;50.544;9.642;2022-12-07T06:05:51;98143.22;;;3.11;100.00
20394;BME280;10356;50.544;9.642;2022-12-07T06:08:18;98139.81;;;3.10;100.00
20394;BME280;10356;50.544;9.642;2022-12-07T06:10:46;98137.38;;;3.07;100.00
20394;BME280;10356;50.544;9.642;2022-12-07T06:13:33;98138.38;;;3.05;100.00
20394;BME280;10356;50.544;9.642;2022-12-07T06:15:59;98141.75;;;3.05;100.00
20394;BME280;10356;50.544;9.642;2022-12-07T06:18:26;98137.31;;;3.09;100.00
20394;BME280;10356;50.544;9.642;2022-12-07T06:23:36;98138.84;;;3.13;100.00
20394;BME280;10356;50.544;9.642;2022-12-07T06:26:02;98139.13;;;3.07;100.00
20394;BME280;10356;50.544;9.642;2022-12-07T06:28:29;98131.88;;;3.15;100.00
20394;BME280;10356;50.544;9.642;2022-12-07T06:30:57;98141.47;;;3.11;100.00
20394;BME280;10356;50.544;9.642;2022-12-07T06:33:23;98139.66;;;3.13;100.00
20394;BME280;10356;50.544;9.642;2022-12-07T06:35:50;98136.41;;;3.10;100.00
20394;BME280;10356;50.544;9.642;2022-12-07T06:38:16;98137.16;;;3.12;100.00
20394;BME280;10356;50.544;9.642;2022-12-07T06:40:44;98143.81;;;3.16;100.00
20394;BME280;10356;50.544;9.642;2022-12-07T06:43:10;98147.97;;;3.18;100.00
20394;BME280;10356;50.544;9.642;2022-12-07T06:45:37;98142.84;;;3.18;100.00
20394;BME280;10356;50.544;9.642;2022-12-07T06:48:04;98144.66;;;3.16;100.00
20394;BME280;10356;50.544;9.642;2022-12-07T06:50:30;98143.97;;;3.13;100.00
20394;BME280;10356;50.544;9.642;2022-12-07T06:52:57;98152.28;;;3.18;100.00
20394;BME280;10356;50.544;9.642;2022-12-07T06:55:23;98153.97;;;3.19;100.00
20394;BME280;10356;50.544;9.642;2022-12-07T06:57:51;98149.81;;;3.16;100.00
20394;BME280;10356;50.544;9.642;2022-12-07T07:00:18;98155.78;;;3.17;100.00
20394;BME280;10356;50.544;9.642;2022-12-07T07:02:44;98154.28;;;3.13;100.00
20394;BME280;10356;50.544;9.642;2022-12-07T07:05:11;98162.88;;;3.12;100.00
20394;BME280;10356;50.544;9.642;2022-12-07T07:07:37;98147.53;;;3.10;100.00
20394;BME280;10356;50.544;9.642;2022-12-07T07:10:05;98152.75;;;3.09;100.00
20394;BME280;10356;50.544;9.642;2022-12-07T07:12:32;98153.75;;;3.06;100.00
20394;BME280;10356;50.544;9.642;2022-12-07T07:15:00;98151.75;;;3.11;100.00
20394;BME280;10356;50.544;9.642;2022-12-07T07:17:26;98154.72;;;3.04;100.00
20394;BME280;10356;50.544;9.642;2022-12-07T07:19:52;98152.91;;;3.06;100.00
20394;BME280;10356;50.544;9.642;2022-12-07T07:22:19;98155.63;;;3.03;100.00
20394;BME280;10356;50.544;9.642;2022-12-07T07:24:45;98160.69;;;3.04;100.00
20394;BME280;10356;50.544;9.642;2022-12-07T07:27:12;98163.06;;;3.09;100.00
20394;BME280;10356;50.544;9.642;2022-12-07T07:29:38;98160.78;;;3.03;100.00
20394;BME280;10356;50.544;9.642;2022-12-07T07:32:06;98161.69;;;3.02;100.00
20394;BME280;10356;50.544;9.642;2022-12-07T07:34:33;98161.22;;;2.94;100.00
20394;BME280;10356;50.544;9.642;2022-12-07T07:37:00;98168.09;;;2.93;100.00
20394;BME280;10356;50.544;9.642;2022-12-07T07:39:27;98170.44;;;2.98;100.00
20394;BME280;10356;50.544;9.642;2022-12-07T07:41:53;98170.44;;;2.98;100.00
20394;BME280;10356;50.544;9.642;2022-12-07T07:44:20;98177.56;;;2.93;100.00
20394;BME280;10356;50.544;9.642;2022-12-07T07:46:47;98178.38;;;2.93;100.00
20394;BME280;10356;50.544;9.642;2022-12-07T07:49:14;98181.19;;;2.89;100.00
20394;BME280;10356;50.544;9.642;2022-12-07T07:51:41;98187.16;;;2.89;100.00
20394;BME280;10356;50.544;9.642;2022-12-07T07:54:07;98179.53;;;2.88;100.00
20394;BME280;10356;50.544;9.642;2022-12-07T07:56:34;98179.53;;;2.88;100.00
20394;BME280;10356;50.544;9.642;2022-12-07T07:59:00;98183.06;;;2.85;100.00
20394;BME280;10356;50.544;9.642;2022-12-07T08:01:27;98182.72;;;2.93;100.00
20394;BME280;10356;50.544;9.642;2022-12-07T08:03:53;98179.69;;;3.02;100.00
20394;BME280;10356;50.544;9.642;2022-12-07T08:06:21;98182.50;;;3.14;100.00
20394;BME280;10356;50.544;9.642;2022-12-07T08:08:48;98173.50;;;3.23;100.00
20394;BME280;10356;50.544;9.642;2022-12-07T08:11:14;98186.22;;;3.26;100.00
20394;BME280;10356;50.544;9.642;2022-12-07T08:13:40;98190.47;;;3.27;100.00
20394;BME280;10356;50.544;9.642;2022-12-07T08:16:09;98180.75;;;3.32;100.00
20394;BME280;10356;50.544;9.642;2022-12-07T08:18:36;98187.50;;;3.34;100.00
20394;BME280;10356;50.544;9.642;2022-12-07T08:21:03;98181.22;;;3.40;100.00
20394;BME280;10356;50.544;9.642;2022-12-07T08:23:32;98181.06;;;3.43;100.00
20394;BME280;10356;50.544;9.642;2022-12-07T08:26:00;98176.72;;;3.43;100.00
20394;BME280;10356;50.544;9.642;2022-12-07T08:28:27;98186.38;;;3.40;100.00
20394;BME280;10356;50.544;9.642;2022-12-07T08:30:58;98176.81;;;3.42;100.00
20394;BME280;10356;50.544;9.642;2022-12-07T08:33:25;98180.91;;;3.46;100.00
20394;BME280;10356;50.544;9.642;2022-12-07T08:35:51;98180.00;;;3.47;100.00
20394;BME280;10356;50.544;9.642;2022-12-07T08:38:18;98181.66;;;3.48;100.00
20394;BME280;10356;50.544;9.642;2022-12-07T08:40:53;98178.88;;;3.53;100.00
20394;BME280;10356;50.544;9.642;2022-12-07T08:43:20;98186.69;;;3.51;100.00
20394;BME280;10356;50.544;9.642;2022-12-07T08:45:47;98186.50;;;3.54;100.00
20394;BME280;10356;50.544;9.642;2022-12-07T08:48:16;98187.13;;;3.59;100.00
20394;BME280;10356;50.544;9.642;2022-12-07T08:50:47;98192.84;;;3.64;100.00
20394;BME280;10356;50.544;9.642;2022-12-07T08:53:14;98186.88;;;3.64;100.00
20394;BME280;10356;50.544;9.642;2022-12-07T08:55:41;98192.41;;;3.56;100.00
20394;BME280;10356;50.544;9.642;2022-12-07T08:58:08;98193.16;;;3.58;100.00
20394;BME280;10356;50.544;9.642;2022-12-07T09:00:35;98190.28;;;3.64;100.00
20394;BME280;10356;50.544;9.642;2022-12-07T09:03:01;98198.00;;;3.64;100.00
20394;BME280;10356;50.544;9.642;2022-12-07T09:05:28;98189.06;;;3.71;100.00
20394;BME280;10356;50.544;9.642;2022-12-07T09:07:57;98197.38;;;3.76;100.00
20394;BME280;10356;50.544;9.642;2022-12-07T09:10:26;98191.91;;;3.82;100.00
20394;BME280;10356;50.544;9.642;2022-12-07T09:12:53;98199.19;;;3.91;100.00
20394;BME280;10356;50.544;9.642;2022-12-07T09:15:20;98190.97;;;4.00;100.00
20394;BME280;10356;50.544;9.642;2022-12-07T09:17:47;98186.84;;;4.13;100.00
20394;BME280;10356;50.544;9.642;2022-12-07T09:20:13;98198.16;;;4.26;100.00
20394;BME280;10356;50.544;9.642;2022-12-07T09:22:40;98195.78;;;4.39;100.00
20394;BME280;10356;50.544;9.642;2022-12-07T09:25:07;98201.69;;;4.41;99.56
20394;BME280;10356;50.544;9.642;2022-12-07T09:27:33;98186.72;;;4.48;98.76
20394;BME280;10356;50.544;9.642;2022-12-07T09:30:00;98196.63;;;4.55;97.97
20394;BME280;10356;50.544;9.642;2022-12-07T09:32:28;98192.94;;;4.59;97.46
20394;BME280;10356;50.544;9.642;2022-12-07T09:34:55;98197.88;;;4.64;96.77
20394;BME280;10356;50.544;9.642;2022-12-07T09:37:21;98191.88;;;4.63;96.67
20394;BME280;10356;50.544;9.642;2022-12-07T09:39:48;98194.69;;;4.59;97.23
20394;BME280;10356;50.544;9.642;2022-12-07T09:42:26;98190.22;;;4.62;96.91
20394;BME280;10356;50.544;9.642;2022-12-07T09:44:53;98198.03;;;4.61;97.27
20394;BME280;10356;50.544;9.642;2022-12-07T09:47:20;98186.63;;;4.65;96.48
20394;BME280;10356;50.544;9.642;2022-12-07T09:49:48;98185.72;;;4.66;96.01
20394;BME280;10356;50.544;9.642;2022-12-07T09:52:19;98192.88;;;4.76;95.17
20394;BME280;10356;50.544;9.642;2022-12-07T09:54:48;98180.47;;;4.67;94.68
20394;BME280;10356;50.544;9.642;2022-12-07T09:57:16;98176.06;;;4.69;94.38
20394;BME280;10356;50.544;9.642;2022-12-07T09:59:43;98177.97;;;4.81;94.02
20394;BME280;10356;50.544;9.642;2022-12-07T10:02:34;98169.09;;;5.01;92.91
20394;BME280;10356;50.544;9.642;2022-12-07T10:05:04;98170.50;;;5.06;92.05
20394;BME280;10356;50.544;9.642;2022-12-07T10:07:30;98170.47;;;5.22;91.74
20394;BME280;10356;50.544;9.642;2022-12-07T10:09:57;98167.44;;;5.30;90.99
20394;BME280;10356;50.544;9.642;2022-12-07T10:12:23;98168.28;;;5.30;89.85
20394;BME280;10356;50.544;9.642;2022-12-07T10:14:55;98165.91;;;5.41;88.67
20394;BME280;10356;50.544;9.642;2022-12-07T10:17:30;98165.25;;;5.38;88.36
20394;BME280;10356;50.544;9.642;2022-12-07T10:20:17;98154.66;;;5.42;88.76
20394;BME280;10356;50.544;9.642;2022-12-07T10:23:01;98159.66;;;5.45;87.94
20394;BME280;10356;50.544;9.642;2022-12-07T10:25:30;98161.09;;;5.35;86.68
20394;BME280;10356;50.544;9.642;2022-12-07T10:28:00;98159.78;;;5.28;87.53
20394;BME280;10356;50.544;9.642;2022-12-07T10:30:28;98155.34;;;5.30;87.29
20394;BME280;10356;50.544;9.642;2022-12-07T10:32:56;98165.03;;;5.27;87.00
20394;BME280;10356;50.544;9.642;2022-12-07T10:35:26;98162.81;;;5.21;86.13
20394;BME280;10356;50.544;9.642;2022-12-07T10:37:55;98157.66;;;5.21;85.75
20394;BME280;10356;50.544;9.642;2022-12-07T10:40:26;98154.63;;;5.28;86.37
20394;BME280;10356;50.544;9.642;2022-12-07T10:43:01;98150.00;;;5.19;86.03
20394;BME280;10356;50.544;9.642;2022-12-07T10:45:31;98154.47;;;5.16;86.31
20394;BME280;10356;50.544;9.642;2022-12-07T10:48:02;98154.41;;;5.17;86.28
20394;BME280;10356;50.544;9.642;2022-12-07T10:50:54;98145.97;;;5.29;86.00
20394;BME280;10356;50.544;9.642;2022-12-07T10:53:33;98142.00;;;5.52;85.63
20394;BME280;10356;50.544;9.642;2022-12-07T10:56:29;98153.28;;;5.51;85.91
20394;BME280;10356;50.544;9.642;2022-12-07T10:59:10;98151.53;;;5.51;85.57
20394;BME280;10356;50.544;9.642;2022-12-07T11:01:48;98146.44;;;5.50;85.48
20394;BME280;10356;50.544;9.642;2022-12-07T11:04:22;98145.63;;;5.49;86.12
20394;BME280;10356;50.544;9.642;2022-12-07T11:06:56;98141.56;;;5.45;86.37
20394;BME280;10356;50.544;9.642;2022-12-07T11:09:44;98133.44;;;5.37;84.25
20394;BME280;10356;50.544;9.642;2022-12-07T11:12:22;98133.78;;;5.31;83.35
20394;BME280;10356;50.544;9.642;2022-12-07T11:14:56;98141.31;;;5.20;85.18
20394;BME280;10356;50.544;9.642;2022-12-07T11:17:33;98131.91;;;5.19;84.32
20394;BME280;10356;50.544;9.642;2022-12-07T11:20:14;98132.44;;;5.10;85.20
20394;BME280;10356;50.544;9.642;2022-12-07T11:22:51;98130.94;;;5.06;85.05
20394;BME280;10356;50.544;9.642;2022-12-07T11:25:26;98130.00;;;5.07;85.59
20394;BME280;10356;50.544;9.642;2022-12-07T11:28:09;98122.19;;;5.08;85.62
20394;BME280;10356;50.544;9.642;2022-12-07T11:30:42;98124.50;;;5.13;85.91
20394;BME280;10356;50.544;9.642;2022-12-07T11:33:19;98120.84;;;5.17;85.52
20394;BME280;10356;50.544;9.642;2022-12-07T11:35:56;98117.06;;;5.23;85.20
20394;BME280;10356;50.544;9.642;2022-12-07T11:38:36;98115.72;;;5.31;84.57
20394;BME280;10356;50.544;9.642;2022-12-07T11:41:05;98112.09;;;5.34;84.57
20394;BME280;10356;50.544;9.642;2022-12-07T11:43:54;98117.75;;;5.40;84.51
20394;BME280;10356;50.544;9.642;2022-12-07T11:46:25;98109.72;;;5.31;84.79
20394;BME280;10356;50.544;9.642;2022-12-07T11:48:58;98106.47;;;5.27;83.76
20394;BME280;10356;50.544;9.642;2022-12-07T11:51:29;98103.06;;;5.27;83.69
20394;BME280;10356;50.544;9.642;2022-12-07T11:54:03;98099.91;;;5.22;84.89
20394;BME280;10356;50.544;9.642;2022-12-07T11:56:35;98096.88;;;5.29;83.83
20394;BME280;10356;50.544;9.642;2022-12-07T11:59:08;98093.19;;;5.33;81.46
20394;BME280;10356;50.544;9.642;2022-12-07T12:01:47;98085.91;;;5.40;80.24
20394;BME280;10356;50.544;9.642;2022-12-07T12:04:29;98093.94;;;5.35;80.95
20394;BME280;10356;50.544;9.642;2022-12-07T12:06:57;98085.84;;;5.41;81.12
20394;BME280;10356;50.544;9.642;2022-12-07T12:09:29;98084.16;;;5.40;80.05
20394;BME280;10356;50.544;9.642;2022-12-07T12:12:24;98086.19;;;5.35;79.81
20394;BME280;10356;50.544;9.642;2022-12-07T12:15:15;98083.69;;;5.34;80.36
20394;BME280;10356;50.544;9.642;2022-12-07T12:18:18;98080.06;;;5.22;80.99
20394;BME280;10356;50.544;9.642;2022-12-07T12:20:53;98081.81;;;5.22;80.94
20394;BME280;10356;50.544;9.642;2022-12-07T12:23:25;98075.84;;;5.21;81.96
20394;BME280;10356;50.544;9.642;2022-12-07T12:25:57;98076.38;;;5.12;81.67
20394;BME280;10356;50.544;9.642;2022-12-07T12:28:29;98079.69;;;5.14;81.64
20394;BME280;10356;50.544;9.642;2022-12-07T12:31:07;98073.63;;;5.15;82.37
20394;BME280;10356;50.544;9.642;2022-12-07T12:33:35;98062.34;;;5.16;81.37
20394;BME280;10356;50.544;9.642;2022-12-07T12:36:24;98069.47;;;5.13;82.25
20394;BME280;10356;50.544;9.642;2022-12-07T12:39:08;98069.72;;;5.08;82.87
20394;BME280;10356;50.544;9.642;2022-12-07T12:41:56;98060.72;;;5.15;82.99
20394;BME280;10356;50.544;9.642;2022-12-07T12:44:40;98071.19;;;5.12;83.68
20394;BME280;10356;50.544;9.642;2022-12-07T12:50:15;98069.84;;;5.21;83.86
20394;BME280;10356;50.544;9.642;2022-12-07T12:52:51;98062.72;;;5.24;84.19
20394;BME280;10356;50.544;9.642;2022-12-07T12:55:24;98063.69;;;5.37;82.65
20394;BME280;10356;50.544;9.642;2022-12-07T13:04:24;98061.00;;;5.25;83.18
20394;BME280;10356;50.544;9.642;2022-12-07T13:06:51;98060.72;;;5.29;81.85
20394;BME280;10356;50.544;9.642;2022-12-07T13:09:21;98058.31;;;5.26;81.89
20394;BME280;10356;50.544;9.642;2022-12-07T13:11:50;98052.78;;;5.18;82.35
20394;BME280;10356;50.544;9.642;2022-12-07T13:14:41;98049.81;;;5.24;82.67
20394;BME280;10356;50.544;9.642;2022-12-07T13:17:09;98054.81;;;5.27;83.18
20394;BME280;10356;50.544;9.642;2022-12-07T13:19:58;98046.13;;;5.28;83.39
20394;BME280;10356;50.544;9.642;2022-12-07T13:22:49;98052.41;;;5.24;83.62
20394;BME280;10356;50.544;9.642;2022-12-07T13:25:36;98050.81;;;5.22;84.43
20394;BME280;10356;50.544;9.642;2022-12-07T13:28:11;98046.59;;;5.21;84.50
20394;BME280;10356;50.544;9.642;2022-12-07T13:30:45;98038.38;;;5.14;85.42
20394;BME280;10356;50.544;9.642;2022-12-07T13:33:13;98039.75;;;5.05;86.06